createdAt,value
2019-02-27T00:01:23.715Z,57.92
2019-02-27T00:03:53.690Z,57.89
2019-02-27T00:06:23.558Z,58.12
2019-02-27T00:08:53.558Z,57.95
2019-02-27T00:11:23.457Z,58.42
2019-02-27T00:13:57.830Z,58.93
2019-02-27T00:16:25.738Z,58.76
2019-02-27T00:18:58.587Z,58.69
2019-02-27T00:21:28.244Z,57.84
2019-02-27T00:23:58.090Z,57.86
2019-02-27T00:26:28.097Z,57.92
2019-02-27T00:28:57.980Z,57.97
2019-02-27T00:31:27.925Z,57.84
2019-02-27T00:33:59.920Z,57.52
2019-02-27T00:36:29.404Z,57.49
2019-02-27T00:38:59.390Z,57.28
2019-02-27T00:41:29.370Z,57.07
2019-02-27T00:44:01.455Z,56.98
2019-02-27T00:46:30.949Z,57.11
2019-02-27T00:49:00.905Z,57.12
2019-02-27T00:51:30.934Z,57.23
2019-02-27T00:54:00.754Z,57.20
2019-02-27T00:56:30.659Z,57.75
2019-02-27T00:59:00.820Z,57.26
2019-02-27T01:01:31.928Z,56.68
2019-02-27T01:04:02.496Z,56.50
2019-02-27T01:06:32.603Z,56.83
2019-02-27T01:09:03.883Z,57.01
2019-02-27T01:11:36.925Z,56.67
2019-02-27T01:14:06.881Z,57.19
2019-02-27T01:16:36.896Z,56.94
2019-02-27T01:19:06.819Z,56.86
2019-02-27T01:21:36.780Z,56.29
2019-02-27T01:24:06.586Z,56.21
2019-02-27T01:26:36.532Z,56.03
2019-02-27T01:29:06.497Z,55.86
2019-02-27T01:31:36.539Z,55.93
2019-02-27T01:34:11.118Z,56.23
2019-02-27T01:36:38.012Z,56.07
2019-02-27T01:39:08.951Z,56.28
2019-02-27T01:41:40.381Z,56.00
2019-02-27T01:44:11.101Z,56.04
2019-02-27T01:46:41.980Z,55.86
2019-02-27T01:49:15.927Z,55.62
2019-02-27T01:51:43.796Z,55.19
2019-02-27T01:54:15.055Z,55.45
2019-02-27T01:56:45.499Z,55.72
2019-02-27T01:59:16.966Z,55.39
2019-02-27T02:01:48.310Z,55.61
2019-02-27T02:04:20.309Z,55.47
2019-02-27T02:06:50.008Z,55.23
2019-02-27T02:09:39.165Z,55.82
2019-02-27T02:12:18.549Z,55.83
2019-02-27T02:15:08.949Z,55.67
2019-02-27T02:18:20.215Z,55.83
2019-02-27T02:21:20.958Z,56.06
2019-02-27T02:24:37.073Z,56.25
2019-02-27T02:27:28.476Z,56.21
2019-02-27T02:30:21.366Z,56.38
2019-02-27T02:33:10.556Z,56.16
2019-02-27T02:36:36.853Z,56.33
2019-02-27T02:39:31.990Z,56.79
2019-02-27T02:42:33.453Z,57.10
2019-02-27T02:45:32.808Z,56.95
2019-02-27T02:48:19.289Z,56.93
2019-02-27T02:51:16.223Z,56.55
2019-02-27T02:54:19.257Z,56.74
2019-02-27T02:57:05.150Z,56.75
2019-02-27T03:00:10.918Z,56.61
2019-02-27T03:03:23.897Z,57.17
2019-02-27T03:06:35.138Z,56.96
2019-02-27T03:10:08.126Z,56.79
2019-02-27T03:12:53.139Z,56.73
2019-02-27T03:15:47.693Z,57.05
2019-02-27T03:18:47.199Z,57.72
2019-02-27T03:21:32.988Z,58.15
2019-02-27T03:24:41.314Z,57.94
2019-02-27T03:27:41.855Z,58.16
2019-02-27T03:31:16.311Z,58.15
2019-02-27T03:34:16.870Z,58.40
2019-02-27T03:37:26.862Z,58.78
2019-02-27T03:40:10.725Z,58.62
2019-02-27T03:43:02.918Z,58.74
2019-02-27T03:46:25.170Z,59.12
2019-02-27T03:49:45.399Z,59.57
2019-02-27T03:52:43.932Z,59.23
2019-02-27T03:55:57.019Z,59.40
2019-02-27T03:58:39.397Z,60.15
2019-02-27T04:01:36.150Z,61.13
2019-02-27T04:05:07.136Z,60.66
2019-02-27T04:08:08.951Z,60.15
2019-02-27T04:10:38.862Z,59.42
2019-02-27T04:13:08.866Z,60.04
2019-02-27T04:15:38.827Z,60.73
2019-02-27T04:18:07.284Z,60.91
2019-02-27T04:20:37.188Z,60.85
2019-02-27T04:23:11.292Z,60.49
2019-02-27T04:25:38.659Z,60.04
2019-02-27T04:28:08.590Z,60.10
2019-02-27T04:30:39.014Z,60.15
2019-02-27T04:33:09.085Z,60.20
2019-02-27T04:35:39.655Z,60.04
2019-02-27T04:38:10.030Z,59.97
2019-02-27T04:40:41.735Z,59.90
2019-02-27T04:43:12.545Z,60.26
2019-02-27T04:45:43.923Z,59.95
2019-02-27T04:48:14.071Z,59.53
2019-02-27T04:50:45.010Z,59.28
2019-02-27T04:53:14.970Z,59.37
2019-02-27T04:55:44.862Z,59.55
2019-02-27T04:58:14.751Z,59.61
2019-02-27T05:00:44.791Z,59.82
2019-02-27T05:03:14.623Z,59.77
2019-02-27T05:05:44.564Z,59.90
2019-02-27T05:08:14.440Z,59.93
2019-02-27T05:10:44.386Z,59.33
2019-02-27T05:13:14.369Z,59.26
2019-02-27T05:15:44.287Z,58.60
2019-02-27T05:18:15.226Z,55.93
2019-02-27T05:20:45.824Z,54.10
2019-02-27T05:23:15.741Z,53.65
2019-02-27T05:25:45.658Z,54.62
2019-02-27T05:28:15.674Z,55.31
2019-02-27T05:30:45.941Z,55.38
2019-02-27T05:33:15.872Z,54.66
2019-02-27T05:35:45.694Z,55.39
2019-02-27T05:38:15.577Z,55.63
2019-02-27T05:40:45.398Z,55.76
2019-02-27T05:43:15.272Z,55.68
2019-02-27T05:45:45.116Z,55.71
2019-02-27T05:48:15.082Z,56.58
2019-02-27T05:50:44.976Z,59.94
2019-02-27T05:53:14.957Z,56.61
2019-02-27T05:55:44.836Z,57.11
2019-02-27T05:58:15.880Z,56.61
2019-02-27T06:00:45.787Z,56.88
2019-02-27T06:03:15.893Z,57.74
2019-02-27T06:05:49.778Z,56.46
2019-02-27T06:08:18.982Z,56.17
2019-02-27T06:10:48.897Z,55.71
2019-02-27T06:13:18.819Z,55.05
2019-02-27T06:15:49.298Z,57.03
2019-02-27T06:18:22.469Z,56.39
2019-02-27T06:20:50.980Z,55.57
2019-02-27T06:23:21.426Z,55.49
2019-02-27T06:25:51.331Z,56.01
2019-02-27T06:28:21.453Z,54.85
2019-02-27T06:30:51.386Z,54.98
2019-02-27T06:33:21.219Z,55.27
2019-02-27T06:35:51.109Z,54.90
2019-02-27T06:38:25.218Z,55.79
2019-02-27T06:40:52.763Z,56.21
2019-02-27T06:43:27.146Z,56.11
2019-02-27T06:45:54.419Z,56.29
2019-02-27T06:48:24.248Z,55.06
2019-02-27T06:50:54.193Z,55.24
2019-02-27T06:53:24.016Z,55.52
2019-02-27T06:55:53.889Z,54.78
2019-02-27T06:58:23.722Z,53.91
2019-02-27T07:00:53.631Z,53.51
2019-02-27T07:03:23.533Z,53.67
2019-02-27T07:05:53.394Z,53.01
2019-02-27T07:08:24.352Z,52.91
2019-02-27T07:10:57.306Z,53.45
2019-02-27T07:13:26.800Z,53.26
2019-02-27T07:15:57.586Z,54.43
2019-02-27T07:18:27.482Z,53.87
2019-02-27T07:20:58.408Z,52.94
2019-02-27T07:23:30.134Z,54.44
2019-02-27T07:26:00.054Z,55.16
2019-02-27T07:28:29.908Z,55.72
2019-02-27T07:30:59.778Z,56.25
2019-02-27T07:33:30.937Z,55.68
2019-02-27T07:36:03.439Z,55.35
2019-02-27T07:38:32.450Z,55.27
2019-02-27T07:41:02.433Z,55.34
2019-02-27T07:43:32.373Z,56.04
2019-02-27T07:46:02.361Z,56.89
2019-02-27T07:48:32.301Z,58.00
2019-02-27T07:51:02.210Z,58.13
2019-02-27T07:53:32.072Z,58.32
2019-02-27T07:56:01.916Z,58.18
2019-02-27T07:58:33.636Z,58.18
2019-02-27T08:01:04.643Z,58.01
2019-02-27T08:03:35.956Z,57.65
2019-02-27T08:06:05.842Z,57.14
2019-02-27T08:08:35.863Z,56.75
2019-02-27T08:11:06.833Z,56.48
2019-02-27T08:13:36.847Z,55.72
2019-02-27T08:16:07.063Z,55.84
2019-02-27T08:18:38.159Z,55.41
2019-02-27T08:21:08.311Z,54.30
2019-02-27T08:23:39.334Z,53.74
2019-02-27T08:26:09.310Z,53.48
2019-02-27T08:28:39.189Z,53.31
2019-02-27T08:31:09.195Z,52.16
2019-02-27T08:33:39.222Z,52.00
2019-02-27T08:36:09.239Z,51.67
2019-02-27T08:38:39.232Z,52.16
2019-02-27T08:41:09.171Z,51.30
2019-02-27T08:43:41.193Z,50.96
2019-02-27T08:46:10.640Z,49.58
2019-02-27T08:48:40.622Z,49.42
2019-02-27T08:51:10.529Z,48.81
2019-02-27T08:53:40.463Z,48.36
2019-02-27T08:56:12.398Z,47.57
2019-02-27T08:58:42.010Z,46.23
2019-02-27T09:01:12.439Z,46.10
2019-02-27T09:03:42.336Z,46.40
2019-02-27T09:06:12.352Z,46.01
2019-02-27T09:08:44.007Z,46.07
2019-02-27T09:11:14.717Z,45.16
2019-02-27T09:13:44.828Z,44.03
2019-02-27T09:16:14.691Z,43.65
2019-02-27T09:18:44.680Z,44.36
2019-02-27T09:21:14.616Z,44.58
2019-02-27T09:23:44.809Z,42.71
2019-02-27T09:26:14.705Z,42.05
2019-02-27T09:28:45.201Z,41.51
2019-02-27T09:31:15.167Z,41.30
2019-02-27T09:33:45.077Z,40.83
2019-02-27T09:36:15.094Z,40.68
2019-02-27T09:38:45.261Z,39.90
2019-02-27T09:41:15.246Z,38.24
2019-02-27T09:43:45.364Z,38.52
2019-02-27T09:46:18.996Z,39.69
2019-02-27T09:48:46.964Z,39.37
2019-02-27T09:51:19.125Z,37.80
2019-02-27T09:53:48.391Z,37.11
2019-02-27T09:56:18.304Z,37.55
2019-02-27T09:58:48.179Z,37.10
2019-02-27T10:01:19.022Z,36.46
2019-02-27T10:03:48.972Z,36.71
2019-02-27T10:06:18.992Z,35.57
2019-02-27T10:08:48.998Z,34.90
2019-02-27T10:11:21.565Z,34.52
2019-02-27T10:13:50.503Z,34.63
2019-02-27T10:16:20.347Z,34.64
2019-02-27T10:18:54.783Z,33.81
2019-02-27T10:21:22.038Z,33.49
2019-02-27T10:23:51.998Z,33.20
2019-02-27T10:26:22.663Z,33.37
2019-02-27T10:28:52.617Z,33.54
2019-02-27T10:31:22.626Z,33.56
2019-02-27T10:33:52.647Z,33.99
2019-02-27T10:36:22.847Z,32.76
2019-02-27T10:38:52.809Z,33.12
2019-02-27T10:41:22.803Z,32.76
2019-02-27T10:43:53.969Z,32.71
2019-02-27T10:46:24.433Z,32.21
2019-02-27T10:48:54.533Z,31.80
2019-02-27T10:51:24.390Z,32.05
2019-02-27T10:53:54.427Z,30.67
2019-02-27T10:56:24.864Z,30.78
2019-02-27T10:58:54.806Z,31.17
2019-02-27T11:01:25.877Z,31.27
2019-02-27T11:03:55.847Z,30.76
2019-02-27T11:06:33.695Z,29.56
2019-02-27T11:08:57.376Z,29.16
2019-02-27T11:11:27.216Z,29.07
2019-02-27T11:13:57.148Z,28.22
2019-02-27T11:16:27.984Z,27.39
2019-02-27T11:18:57.934Z,27.75
2019-02-27T11:21:30.875Z,26.84
2019-02-27T11:24:00.733Z,27.11
2019-02-27T11:26:33.227Z,28.60
2019-02-27T11:29:02.488Z,28.21
2019-02-27T11:31:32.718Z,29.09
2019-02-27T11:34:05.039Z,28.46
2019-02-27T11:36:34.996Z,27.92
2019-02-27T11:39:06.326Z,27.72
2019-02-27T11:44:14.292Z,28.21
2019-02-27T11:46:44.728Z,28.07
2019-02-27T11:49:14.661Z,28.12
2019-02-27T11:51:44.715Z,26.86
2019-02-27T11:54:14.645Z,28.38
2019-02-27T11:56:44.672Z,27.33
2019-02-27T11:59:14.696Z,28.54
2019-02-27T12:01:45.077Z,27.02
2019-02-27T12:04:19.261Z,26.74
2019-02-27T12:06:46.600Z,27.62
2019-02-27T12:09:16.607Z,27.58
2019-02-27T12:11:48.769Z,27.43
2019-02-27T12:14:19.002Z,26.39
2019-02-27T12:16:51.799Z,26.97
2019-02-27T12:19:20.842Z,27.74
2019-02-27T12:21:50.765Z,26.94
2019-02-27T12:24:20.605Z,26.94
2019-02-27T12:26:50.567Z,27.30
2019-02-27T12:29:20.588Z,26.70
2019-02-27T12:31:50.497Z,26.30
2019-02-27T12:34:20.530Z,26.64
2019-02-27T12:36:52.644Z,26.97
2019-02-27T12:39:22.288Z,25.25
2019-02-27T12:41:52.200Z,25.65
2019-02-27T12:44:22.242Z,26.43
2019-02-27T12:46:52.168Z,25.97
2019-02-27T12:49:22.063Z,25.34
2019-02-27T12:51:51.977Z,25.43
2019-02-27T12:54:21.920Z,25.00
2019-02-27T12:56:51.754Z,24.49
2019-02-27T12:59:21.699Z,24.56
2019-02-27T13:01:51.903Z,25.08
2019-02-27T13:04:21.921Z,24.92
2019-02-27T13:06:51.775Z,25.35
2019-02-27T13:09:24.493Z,25.04
2019-02-27T13:11:53.317Z,24.47
2019-02-27T13:14:23.295Z,25.63
2019-02-27T13:16:53.284Z,25.90
2019-02-27T13:19:23.219Z,25.02
2019-02-27T13:21:55.001Z,24.28
2019-02-27T13:24:24.689Z,24.83
2019-02-27T13:26:54.610Z,24.19
2019-02-27T13:29:24.609Z,24.73
2019-02-27T13:31:56.489Z,24.98
2019-02-27T13:34:26.021Z,24.54
2019-02-27T13:36:55.936Z,23.99
2019-02-27T13:39:26.336Z,24.56
2019-02-27T13:41:56.332Z,25.03
2019-02-27T13:44:26.207Z,25.54
2019-02-27T13:46:57.004Z,24.57
2019-02-27T13:49:27.479Z,24.70
2019-02-27T13:51:57.510Z,24.90
2019-02-27T13:54:27.424Z,24.30
2019-02-27T13:56:57.454Z,25.17
2019-02-27T13:59:27.406Z,24.79
2019-02-27T14:02:03.445Z,25.78
2019-02-27T14:04:29.040Z,24.79
2019-02-27T14:06:59.016Z,25.06
2019-02-27T14:09:29.006Z,24.72
2019-02-27T14:11:59.416Z,24.76
2019-02-27T14:14:29.352Z,24.48
2019-02-27T14:16:59.436Z,24.49
2019-02-27T14:19:30.328Z,24.16
2019-02-27T14:22:00.541Z,25.10
2019-02-27T14:24:30.479Z,25.26
2019-02-27T14:27:00.417Z,25.07
2019-02-27T14:29:30.703Z,25.78
2019-02-27T14:32:01.861Z,25.64
2019-02-27T14:34:31.877Z,25.51
2019-02-27T14:37:01.795Z,26.20
2019-02-27T14:39:31.823Z,26.39
2019-02-27T14:42:01.650Z,25.58
2019-02-27T14:44:32.144Z,25.83
2019-02-27T14:47:02.247Z,26.20
2019-02-27T14:49:32.074Z,25.85
2019-02-27T14:52:02.008Z,25.91
2019-02-27T14:54:31.983Z,26.64
2019-02-27T14:57:01.814Z,25.85
2019-02-27T14:59:31.796Z,25.43
2019-02-27T15:02:01.774Z,25.55
2019-02-27T15:04:33.423Z,25.43
2019-02-27T15:07:04.553Z,25.77
2019-02-27T15:09:36.542Z,25.85
2019-02-27T15:12:06.223Z,25.11
2019-02-27T15:14:36.323Z,25.94
2019-02-27T15:17:06.241Z,25.71
2019-02-27T15:19:36.155Z,26.38
2019-02-27T15:22:06.288Z,26.39
2019-02-27T15:24:36.194Z,26.82
2019-02-27T15:27:06.276Z,26.55
2019-02-27T15:29:36.928Z,26.04
2019-02-27T15:32:07.077Z,25.65
2019-02-27T15:34:36.901Z,26.24
2019-02-27T15:37:07.048Z,26.46
2019-02-27T15:39:36.906Z,26.79
2019-02-27T15:42:09.702Z,26.71
2019-02-27T15:44:45.913Z,27.71
2019-02-27T15:47:15.980Z,26.66
2019-02-27T15:49:48.808Z,27.72
2019-02-27T15:52:18.703Z,27.75
2019-02-27T15:54:48.641Z,27.28
2019-02-27T15:57:18.622Z,26.96
2019-02-27T15:59:48.591Z,27.89
2019-02-27T16:02:18.479Z,28.35
2019-02-27T16:04:48.402Z,28.76
2019-02-27T16:07:18.352Z,28.22
2019-02-27T16:09:48.338Z,28.64
2019-02-27T16:12:19.894Z,28.95
2019-02-27T16:14:49.844Z,28.96
2019-02-27T16:17:19.791Z,28.85
2019-02-27T16:19:49.721Z,29.84
2019-02-27T16:22:19.780Z,30.46
2019-02-27T16:24:49.709Z,30.62
2019-02-27T16:27:19.727Z,31.57
2019-02-27T16:29:49.641Z,32.20
2019-02-27T16:32:20.238Z,32.57
2019-02-27T16:34:50.380Z,33.23
2019-02-27T16:37:22.812Z,33.30
2019-02-27T16:39:52.042Z,33.57
2019-02-27T16:42:21.981Z,33.94
2019-02-27T16:44:54.359Z,33.89
2019-02-27T16:47:23.820Z,34.29
2019-02-27T16:49:54.804Z,34.76
2019-02-27T16:52:24.784Z,34.80
2019-02-27T16:54:54.782Z,35.06
2019-02-27T16:57:24.950Z,34.98
2019-02-27T16:59:54.957Z,35.80
2019-02-27T17:02:24.958Z,35.86
2019-02-27T17:04:54.898Z,36.63
2019-02-27T17:07:26.575Z,37.62
2019-02-27T17:09:56.447Z,37.87
2019-02-27T17:12:26.389Z,38.32
2019-02-27T17:14:58.650Z,37.93
2019-02-27T17:17:28.057Z,38.15
2019-02-27T17:19:57.897Z,38.91
2019-02-27T17:22:30.273Z,39.36
2019-02-27T17:24:59.520Z,39.64
2019-02-27T17:27:29.446Z,40.20
2019-02-27T17:30:01.190Z,40.77
2019-02-27T17:32:33.127Z,41.03
2019-02-27T17:35:03.103Z,41.07
2019-02-27T17:37:33.049Z,42.13
2019-02-27T17:40:03.604Z,42.22
2019-02-27T17:42:34.073Z,43.08
2019-02-27T17:45:04.561Z,43.30
2019-02-27T17:47:35.754Z,44.22
2019-02-27T17:50:07.238Z,44.03
2019-02-27T17:52:38.239Z,44.53
2019-02-27T17:55:08.610Z,45.31
2019-02-27T17:57:38.691Z,46.40
2019-02-27T18:00:16.074Z,46.66
2019-02-27T18:02:44.578Z,46.31
2019-02-27T18:05:14.637Z,46.87
2019-02-27T18:07:44.697Z,46.21
2019-02-27T18:10:14.980Z,46.97
2019-02-27T18:12:44.906Z,47.48
2019-02-27T18:15:20.001Z,47.24
2019-02-27T18:17:47.245Z,47.70
2019-02-27T18:20:18.085Z,47.65
2019-02-27T18:22:49.565Z,47.13
2019-02-27T18:25:19.959Z,47.54
2019-02-27T18:27:49.912Z,48.01
2019-02-27T18:30:19.944Z,48.89
2019-02-27T18:32:50.004Z,49.01
2019-02-27T18:35:20.329Z,49.87
2019-02-27T18:37:54.308Z,50.64
2019-02-27T18:40:22.159Z,50.86
2019-02-27T18:42:55.260Z,51.22
2019-02-27T18:45:24.007Z,51.37
2019-02-27T18:47:53.975Z,51.37
2019-02-27T18:50:24.745Z,51.55
2019-02-27T18:52:55.717Z,51.70
2019-02-27T18:55:29.446Z,52.08
2019-02-27T18:57:57.371Z,52.25
2019-02-27T19:00:27.474Z,52.88
2019-02-27T19:02:57.581Z,53.96
2019-02-27T19:05:27.579Z,54.20
2019-02-27T19:07:57.608Z,54.01
2019-02-27T19:10:27.586Z,53.97
2019-02-27T19:12:59.976Z,54.51
2019-02-27T19:15:29.581Z,54.71
2019-02-27T19:17:59.609Z,55.44
2019-02-27T19:20:31.635Z,55.20
2019-02-27T19:23:01.703Z,55.12
2019-02-27T19:25:34.805Z,55.25
2019-02-27T19:28:03.784Z,55.05
2019-02-27T19:30:34.754Z,55.08
2019-02-27T19:33:04.984Z,55.14
2019-02-27T19:35:34.995Z,55.28
2019-02-27T19:38:05.701Z,55.53
2019-02-27T19:40:36.158Z,55.95
2019-02-27T19:43:06.642Z,56.04
2019-02-27T19:45:36.746Z,56.02
2019-02-27T19:48:07.821Z,56.33
2019-02-27T19:50:37.792Z,56.50
2019-02-27T19:53:07.784Z,56.35
2019-02-27T19:55:37.904Z,56.79
2019-02-27T19:58:07.899Z,57.23
2019-02-27T20:00:39.056Z,57.19
2019-02-27T20:03:09.545Z,57.16
2019-02-27T20:05:40.584Z,57.39
2019-02-27T20:08:11.130Z,57.48
2019-02-27T20:10:41.234Z,57.62
2019-02-27T20:13:12.224Z,57.36
2019-02-27T20:15:42.826Z,57.41
2019-02-27T20:18:14.196Z,57.41
2019-02-27T20:20:44.523Z,57.14
2019-02-27T20:23:15.831Z,56.77
2019-02-27T20:25:45.845Z,56.47
2019-02-27T20:28:15.764Z,56.04
2019-02-27T20:30:46.048Z,56.39
2019-02-27T20:33:16.065Z,57.05
2019-02-27T20:35:46.994Z,56.78
2019-02-27T20:38:17.048Z,56.47
2019-02-27T20:40:47.085Z,56.43
2019-02-27T20:43:17.086Z,56.60
2019-02-27T20:45:47.145Z,57.07
2019-02-27T20:48:17.004Z,57.53
2019-02-27T20:50:47.398Z,57.89
2019-02-27T20:53:17.400Z,58.07
2019-02-27T20:55:47.351Z,57.73
2019-02-27T20:58:36.511Z,57.67
2019-02-27T21:01:11.060Z,57.14
2019-02-27T21:03:40.964Z,56.92
2019-02-27T21:06:12.772Z,56.78
2019-02-27T21:08:42.535Z,56.82
2019-02-27T21:11:12.847Z,56.15
2019-02-27T21:13:42.760Z,55.43
2019-02-27T21:16:12.826Z,55.31
2019-02-27T21:18:42.822Z,55.35
2019-02-27T21:21:12.810Z,54.88
2019-02-27T21:23:42.652Z,54.75
2019-02-27T21:26:12.617Z,54.51
2019-02-27T21:28:42.464Z,54.54
2019-02-27T21:31:12.673Z,54.34
2019-02-27T21:33:45.671Z,54.32
2019-02-27T21:36:14.164Z,54.30
2019-02-27T21:38:44.015Z,54.21
2019-02-27T21:41:14.064Z,53.64
2019-02-27T21:43:44.948Z,53.84
2019-02-27T21:46:14.975Z,54.31
2019-02-27T21:48:45.063Z,54.41
2019-02-27T21:51:15.029Z,53.93
2019-02-27T21:53:44.933Z,54.16
2019-02-27T21:56:15.199Z,53.53
2019-02-27T21:58:46.579Z,53.46
2019-02-27T22:01:19.258Z,53.28
2019-02-27T22:03:48.195Z,52.73
2019-02-27T22:06:18.131Z,53.12
2019-02-27T22:08:48.045Z,53.05
2019-02-27T22:11:17.981Z,52.81
2019-02-27T22:13:47.977Z,52.75
2019-02-27T22:16:17.986Z,53.00
2019-02-27T22:18:47.934Z,52.84
2019-02-27T22:21:17.968Z,53.33
2019-02-27T22:23:47.847Z,53.24
2019-02-27T22:26:17.845Z,53.21
2019-02-27T22:28:47.681Z,53.31
2019-02-27T22:31:17.630Z,53.24
2019-02-27T22:33:47.606Z,53.50
2019-02-27T22:36:17.673Z,53.74
2019-02-27T22:38:47.523Z,53.65
2019-02-27T22:41:17.578Z,53.95
2019-02-27T22:43:47.454Z,54.13
2019-02-27T22:46:17.446Z,51.61
2019-02-27T22:48:47.472Z,46.80
2019-02-27T22:51:17.482Z,44.50
2019-02-27T22:53:47.351Z,43.31
2019-02-27T22:56:17.570Z,46.04
2019-02-27T22:58:50.889Z,45.67
2019-02-27T23:01:26.104Z,45.11
2019-02-27T23:03:58.766Z,44.01
2019-02-27T23:06:28.732Z,43.60
2019-02-27T23:08:58.871Z,44.60
2019-02-27T23:11:28.827Z,45.72
2019-02-27T23:13:58.866Z,45.62
2019-02-27T23:16:29.825Z,48.06
2019-02-27T23:19:00.594Z,50.11
2019-02-27T23:21:30.574Z,51.15
2019-02-27T23:24:00.615Z,51.26
2019-02-27T23:26:30.835Z,51.61
2019-02-27T23:29:01.833Z,52.22
2019-02-27T23:31:31.927Z,52.02
2019-02-27T23:34:01.987Z,52.07
2019-02-27T23:36:31.901Z,52.29
2019-02-27T23:39:01.858Z,52.05
2019-02-27T23:41:33.496Z,51.90
2019-02-27T23:44:05.386Z,51.98
2019-02-27T23:46:35.201Z,52.33
2019-02-27T23:49:06.549Z,52.13
2019-02-27T23:51:36.923Z,52.42
2019-02-27T23:54:06.911Z,52.19
2019-02-27T23:56:36.846Z,52.30
2019-02-27T23:59:06.884Z,51.95
